createdAt,value
2022-11-18T00:01:12.437Z,33.97
2022-11-18T00:03:41.038Z,35.03
2022-11-18T00:06:10.735Z,45.67
2022-11-18T00:08:39.030Z,42.03
2022-11-18T00:11:37.765Z,41.60
2022-11-18T00:14:22.348Z,34.60
2022-11-18T00:17:01.141Z,37.90
2022-11-18T00:19:33.733Z,29.77
2022-11-18T00:22:01.456Z,36.57
2022-11-18T00:24:28.517Z,39.03
2022-11-18T00:26:55.426Z,34.50
2022-11-18T00:29:23.065Z,36.80
2022-11-18T00:31:50.218Z,35.47
2022-11-18T00:34:18.764Z,37.47
2022-11-18T00:36:46.390Z,38.07
2022-11-18T00:39:15.512Z,37.53
2022-11-18T00:42:01.280Z,35.67
2022-11-18T00:44:28.207Z,36.33
2022-11-18T00:46:55.278Z,41.63
2022-11-18T00:49:22.324Z,42.13
2022-11-18T00:51:49.110Z,33.03
2022-11-18T00:54:16.095Z,35.80
2022-11-18T00:56:42.948Z,40.20
2022-11-18T00:59:09.668Z,36.33
2022-11-18T01:01:37.089Z,39.57
2022-11-18T01:04:04.122Z,38.53
2022-11-18T01:06:31.035Z,35.07
2022-11-18T01:08:57.793Z,31.60
2022-11-18T01:11:43.270Z,33.90
2022-11-18T01:14:10.096Z,36.27
2022-11-18T01:16:39.376Z,37.23
2022-11-18T01:19:06.206Z,36.30
2022-11-18T01:21:33.101Z,32.97
2022-11-18T01:24:00.210Z,30.67
2022-11-18T01:26:27.019Z,33.10
2022-11-18T01:28:59.940Z,33.33
2022-11-18T01:31:26.850Z,42.83
2022-11-18T01:33:53.692Z,42.23
2022-11-18T01:36:23.311Z,40.50
2022-11-18T01:38:51.206Z,49.33
2022-11-18T01:41:20.058Z,44.60
2022-11-18T01:43:51.761Z,50.00
2022-11-18T01:46:19.507Z,51.77
2022-11-18T01:48:49.412Z,45.07
2022-11-18T01:51:20.316Z,55.17
2022-11-18T01:53:53.799Z,77.97
2022-11-18T01:56:32.116Z,62.73
2022-11-18T01:59:20.663Z,53.33
2022-11-18T02:01:48.239Z,55.17
2022-11-18T02:04:15.820Z,72.97
2022-11-18T02:06:44.421Z,72.87
2022-11-18T02:09:11.662Z,57.10
2022-11-18T02:11:56.801Z,55.43
2022-11-18T02:14:30.605Z,53.90
2022-11-18T02:17:06.120Z,66.77
2022-11-18T02:19:47.887Z,94.20
2022-11-18T02:22:31.834Z,65.40
2022-11-18T02:25:11.789Z,56.80
2022-11-18T02:28:12.422Z,50.57
2022-11-18T02:31:14.693Z,48.40
2022-11-18T02:33:57.852Z,38.67
2022-11-18T02:36:30.948Z,38.90
2022-11-18T02:39:03.617Z,42.77
2022-11-18T02:41:33.876Z,34.57
2022-11-18T02:44:09.354Z,29.70
2022-11-18T02:46:39.679Z,33.43
2022-11-18T02:49:16.807Z,30.83
2022-11-18T02:51:47.698Z,26.87
2022-11-18T02:54:17.229Z,32.23
2022-11-18T02:56:44.777Z,24.53
2022-11-18T02:59:11.655Z,28.20
2022-11-18T03:01:38.740Z,28.13
2022-11-18T03:04:05.613Z,30.03
2022-11-18T03:06:36.928Z,29.90
2022-11-18T03:09:20.172Z,31.03
2022-11-18T03:12:02.201Z,30.27
2022-11-18T03:14:58.824Z,30.43
2022-11-18T03:18:06.901Z,25.53
2022-11-18T03:20:38.700Z,28.80
2022-11-18T03:23:08.482Z,25.50
2022-11-18T03:25:48.747Z,26.63
2022-11-18T03:28:21.743Z,25.43
2022-11-18T03:31:04.844Z,27.50
2022-11-18T03:33:39.397Z,23.57
2022-11-18T03:36:10.183Z,32.47
2022-11-18T03:38:42.529Z,28.07
2022-11-18T03:41:11.798Z,27.10
2022-11-18T03:43:45.094Z,25.23
2022-11-18T03:46:31.348Z,26.53
2022-11-18T03:49:00.369Z,24.13
2022-11-18T03:51:57.520Z,25.10
2022-11-18T03:54:31.516Z,26.73
2022-11-18T03:57:02.400Z,25.70
2022-11-18T03:59:45.747Z,51.23
2022-11-18T04:02:16.653Z,25.37
2022-11-18T04:04:48.354Z,29.17
2022-11-18T04:07:57.679Z,31.43
2022-11-18T04:10:30.953Z,26.17
2022-11-18T04:13:11.824Z,35.43
2022-11-18T04:15:42.001Z,29.67
2022-11-18T04:18:10.078Z,29.67
2022-11-18T04:20:37.633Z,30.47
2022-11-18T04:23:05.793Z,32.77
2022-11-18T04:25:32.836Z,34.40
2022-11-18T04:27:59.746Z,33.37
2022-11-18T04:30:26.633Z,28.23
2022-11-18T04:32:53.431Z,30.67
2022-11-18T04:35:20.468Z,33.67
2022-11-18T04:37:47.239Z,39.23
2022-11-18T04:40:14.057Z,33.23
2022-11-18T04:42:41.007Z,28.60
2022-11-18T04:45:08.736Z,27.03
2022-11-18T04:47:35.715Z,31.67
2022-11-18T04:50:02.661Z,38.00
2022-11-18T04:52:29.446Z,32.00
2022-11-18T04:54:56.291Z,32.20
2022-11-18T04:57:23.287Z,32.90
2022-11-18T04:59:50.182Z,34.67
2022-11-18T05:02:16.929Z,30.93
2022-11-18T05:04:43.927Z,30.93
2022-11-18T05:07:14.845Z,27.27
2022-11-18T05:09:41.766Z,28.83
2022-11-18T05:12:31.411Z,25.07
2022-11-18T05:14:58.209Z,26.43
2022-11-18T05:17:25.315Z,25.30
2022-11-18T05:19:52.057Z,23.87
2022-11-18T05:22:18.846Z,27.70
2022-11-18T05:24:45.841Z,28.77
2022-11-18T05:27:13.056Z,27.63
2022-11-18T05:29:39.851Z,26.87
2022-11-18T05:32:06.705Z,26.90
2022-11-18T05:34:33.476Z,29.40
2022-11-18T05:37:00.549Z,30.00
2022-11-18T05:39:27.547Z,30.10
2022-11-18T05:42:13.126Z,30.30
2022-11-18T05:44:39.993Z,31.27
2022-11-18T05:47:07.043Z,30.20
2022-11-18T05:49:33.886Z,28.50
2022-11-18T05:52:00.702Z,27.57
2022-11-18T05:54:28.460Z,30.57
2022-11-18T05:56:55.398Z,29.00
2022-11-18T05:59:22.216Z,29.83
2022-11-18T06:01:55.826Z,29.57
2022-11-18T06:04:28.491Z,28.70
2022-11-18T06:07:05.922Z,28.93
2022-11-18T06:09:38.361Z,30.40
2022-11-18T06:12:06.480Z,27.00
2022-11-18T06:14:41.896Z,33.93
2022-11-18T06:17:14.438Z,31.13
2022-11-18T06:19:41.473Z,35.50
2022-11-18T06:22:09.792Z,32.80
2022-11-18T06:24:37.240Z,34.87
2022-11-18T06:27:04.430Z,28.83
2022-11-18T06:29:31.594Z,31.03
2022-11-18T06:31:58.437Z,31.73
2022-11-18T06:34:25.286Z,30.23
2022-11-18T06:36:52.131Z,32.43
2022-11-18T06:39:19.207Z,34.30
2022-11-18T06:41:46.391Z,32.63
2022-11-18T06:44:13.614Z,27.33
2022-11-18T06:46:55.525Z,26.23
2022-11-18T06:49:27.312Z,28.90
2022-11-18T06:51:55.031Z,29.00
2022-11-18T06:54:22.260Z,26.90
2022-11-18T06:56:49.194Z,26.40
2022-11-18T06:59:21.630Z,32.70
2022-11-18T07:01:48.468Z,25.07
2022-11-18T07:04:15.340Z,29.80
2022-11-18T07:06:42.282Z,27.43
2022-11-18T07:09:09.418Z,25.87
2022-11-18T07:11:38.330Z,27.97
2022-11-18T07:14:05.182Z,29.00
2022-11-18T07:16:33.765Z,28.53
2022-11-18T07:19:00.522Z,30.80
2022-11-18T07:21:29.167Z,32.03
2022-11-18T07:23:56.928Z,32.70
2022-11-18T07:26:23.759Z,29.50
2022-11-18T07:28:50.903Z,26.37
2022-11-18T07:31:19.914Z,32.47
2022-11-18T07:33:47.622Z,30.97
2022-11-18T07:36:34.009Z,29.93
2022-11-18T07:39:03.433Z,25.07
2022-11-18T07:41:30.864Z,26.73
2022-11-18T07:44:01.344Z,22.83
2022-11-18T07:46:31.060Z,29.80
2022-11-18T07:49:00.065Z,21.67
2022-11-18T07:51:29.351Z,21.90
2022-11-18T07:53:56.614Z,21.83
2022-11-18T07:56:23.995Z,21.97
2022-11-18T07:58:55.694Z,21.97
2022-11-18T08:01:25.080Z,20.10
2022-11-18T08:03:52.011Z,16.47
2022-11-18T08:06:20.221Z,20.30
2022-11-18T08:08:48.348Z,18.03
2022-11-18T08:11:22.189Z,16.07
2022-11-18T08:13:51.302Z,17.70
2022-11-18T08:16:21.868Z,17.73
2022-11-18T08:18:49.029Z,16.43
2022-11-18T08:21:18.305Z,15.57
2022-11-18T08:23:50.696Z,16.70
2022-11-18T08:26:17.580Z,18.60
2022-11-18T08:28:45.086Z,13.27
2022-11-18T08:31:13.697Z,17.07
2022-11-18T08:33:41.301Z,15.57
2022-11-18T08:36:10.360Z,17.07
2022-11-18T08:38:37.627Z,18.17
2022-11-18T08:41:07.283Z,19.90
2022-11-18T08:43:36.729Z,19.90
2022-11-18T08:46:03.559Z,16.73
2022-11-18T08:48:30.634Z,17.80
2022-11-18T08:50:58.763Z,17.70
2022-11-18T08:53:26.104Z,17.33
2022-11-18T08:56:00.707Z,19.33
2022-11-18T08:58:28.632Z,20.20
2022-11-18T09:00:55.883Z,21.07
2022-11-18T09:03:24.022Z,18.07
2022-11-18T09:05:50.972Z,18.53
2022-11-18T09:08:17.746Z,20.07
2022-11-18T09:10:44.573Z,17.27
2022-11-18T09:13:42.541Z,18.77
2022-11-18T09:15:59.623Z,20.30
2022-11-18T09:18:26.920Z,19.90
2022-11-18T09:21:04.959Z,20.97
2022-11-18T09:23:33.383Z,22.00
2022-11-18T09:26:06.874Z,20.70
2022-11-18T09:28:33.727Z,25.10
2022-11-18T09:31:05.174Z,21.40
2022-11-18T09:33:31.970Z,20.10
2022-11-18T09:35:58.800Z,22.23
2022-11-18T09:38:25.859Z,20.73
2022-11-18T09:41:04.415Z,22.47
2022-11-18T09:43:46.340Z,24.23
2022-11-18T09:47:00.478Z,21.67
2022-11-18T09:49:31.049Z,21.47
2022-11-18T09:52:02.785Z,22.33
2022-11-18T09:54:35.989Z,23.37
2022-11-18T09:57:03.793Z,23.00
2022-11-18T09:59:33.935Z,25.07
2022-11-18T10:02:30.212Z,21.57
2022-11-18T10:05:07.773Z,22.60
2022-11-18T10:07:50.965Z,19.70
2022-11-18T10:10:38.779Z,21.87
2022-11-18T10:13:21.805Z,23.97
2022-11-18T10:16:06.685Z,21.13
2022-11-18T10:19:00.256Z,22.83
2022-11-18T10:21:55.492Z,23.60
2022-11-18T10:24:30.431Z,17.97
2022-11-18T10:26:59.670Z,21.73
2022-11-18T10:29:27.412Z,22.50
2022-11-18T10:32:06.905Z,22.70
2022-11-18T10:34:44.967Z,28.07
2022-11-18T10:37:45.411Z,23.33
2022-11-18T10:40:26.544Z,19.50
2022-11-18T10:42:53.702Z,23.43
2022-11-18T10:45:23.368Z,26.93
2022-11-18T10:48:15.267Z,21.70
2022-11-18T10:50:49.373Z,25.90
2022-11-18T10:53:37.676Z,24.60
2022-11-18T10:56:05.516Z,25.80
2022-11-18T10:58:37.817Z,23.03
2022-11-18T11:01:24.913Z,23.27
2022-11-18T11:04:04.688Z,22.90
2022-11-18T11:06:38.162Z,27.03
2022-11-18T11:09:08.336Z,28.03
2022-11-18T11:11:37.093Z,25.80
2022-11-18T11:14:33.180Z,24.67
2022-11-18T11:17:14.356Z,22.87
2022-11-18T11:20:01.480Z,20.60
2022-11-18T11:22:29.406Z,28.13
2022-11-18T11:24:57.063Z,22.83
2022-11-18T11:30:40.793Z,22.30
2022-11-18T11:33:31.162Z,24.03
2022-11-18T11:36:19.328Z,22.07
2022-11-18T11:39:05.173Z,21.40
2022-11-18T11:41:43.131Z,25.17
2022-11-18T11:44:32.380Z,24.67
2022-11-18T11:47:39.583Z,19.30
2022-11-18T11:50:31.342Z,22.13
2022-11-18T11:53:17.352Z,24.23
2022-11-18T11:55:56.400Z,20.90
2022-11-18T11:58:26.558Z,19.20
2022-11-18T12:01:19.841Z,17.40
2022-11-18T12:04:02.570Z,19.90
2022-11-18T12:06:29.938Z,18.73
2022-11-18T12:09:12.448Z,21.67
2022-11-18T12:12:36.365Z,18.43
2022-11-18T12:15:30.927Z,21.90
2022-11-18T12:18:21.034Z,20.33
2022-11-18T12:20:52.814Z,18.60
2022-11-18T12:23:22.839Z,19.77
2022-11-18T12:25:57.443Z,23.33
2022-11-18T12:28:24.422Z,20.80
2022-11-18T12:31:11.462Z,18.60
2022-11-18T12:33:48.210Z,16.27
2022-11-18T12:36:32.408Z,17.57
2022-11-18T12:39:20.734Z,18.90
2022-11-18T12:42:06.047Z,15.70
2022-11-18T12:44:33.492Z,16.73
2022-11-18T12:47:01.890Z,19.67
2022-11-18T12:49:28.692Z,18.43
2022-11-18T12:51:58.585Z,17.47
2022-11-18T12:54:30.794Z,18.10
2022-11-18T12:57:20.954Z,19.57
2022-11-18T12:59:48.191Z,18.17
2022-11-18T13:02:29.063Z,21.73
2022-11-18T13:05:33.303Z,19.27
2022-11-18T13:08:14.196Z,19.77
2022-11-18T13:10:51.729Z,16.77
2022-11-18T13:13:50.623Z,17.03
2022-11-18T13:16:43.992Z,15.97
2022-11-18T13:19:24.929Z,16.17
2022-11-18T13:22:16.042Z,16.73
2022-11-18T13:24:48.265Z,15.87
2022-11-18T13:27:49.018Z,14.87
2022-11-18T13:30:16.407Z,18.50
2022-11-18T13:32:47.950Z,18.83
2022-11-18T13:35:24.669Z,16.23
2022-11-18T13:38:00.649Z,16.80
2022-11-18T13:40:39.190Z,16.83
2022-11-18T13:43:06.157Z,15.63
2022-11-18T13:45:33.932Z,16.90
2022-11-18T13:48:09.305Z,17.50
2022-11-18T13:50:43.500Z,17.53
2022-11-18T13:53:19.243Z,17.10
2022-11-18T13:55:51.612Z,18.67
2022-11-18T13:58:18.407Z,18.80
2022-11-18T14:01:05.272Z,17.73
2022-11-18T14:03:34.953Z,16.77
2022-11-18T14:06:02.727Z,18.77
2022-11-18T14:08:36.209Z,17.97
2022-11-18T14:11:04.435Z,19.23
2022-11-18T14:13:32.994Z,15.97
2022-11-18T14:16:03.723Z,18.23
2022-11-18T14:18:33.767Z,19.40
2022-11-18T14:21:02.506Z,18.30
2022-11-18T14:23:33.277Z,18.13
2022-11-18T14:26:03.094Z,17.43
2022-11-18T14:28:36.909Z,19.07
2022-11-18T14:31:12.868Z,15.37
2022-11-18T14:33:40.050Z,18.20
2022-11-18T14:36:15.666Z,18.63
2022-11-18T14:39:04.488Z,16.07
2022-11-18T14:41:46.967Z,17.70
2022-11-18T14:44:14.224Z,20.20
2022-11-18T14:46:43.344Z,17.87
2022-11-18T14:49:19.377Z,18.97
2022-11-18T14:51:47.119Z,18.37
2022-11-18T14:54:20.747Z,17.80
2022-11-18T14:56:52.400Z,20.77
2022-11-18T14:59:20.976Z,20.73
2022-11-18T15:01:48.450Z,20.30
2022-11-18T15:04:17.396Z,18.57
2022-11-18T15:06:44.388Z,21.50
2022-11-18T15:09:12.298Z,18.67
2022-11-18T15:11:39.457Z,19.37
2022-11-18T15:14:06.328Z,20.33
2022-11-18T15:16:34.394Z,18.80
2022-11-18T15:19:04.137Z,19.10
2022-11-18T15:21:31.578Z,25.00
2022-11-18T15:23:59.592Z,20.70
2022-11-18T15:26:37.339Z,16.40
2022-11-18T15:29:04.957Z,16.80
2022-11-18T15:31:31.954Z,18.83
2022-11-18T15:34:03.466Z,17.73
2022-11-18T15:36:33.573Z,17.57
2022-11-18T15:39:00.575Z,18.90
2022-11-18T15:41:29.567Z,15.97
2022-11-18T15:43:58.726Z,18.10
2022-11-18T15:46:27.440Z,16.57
2022-11-18T15:48:55.701Z,13.83
2022-11-18T15:51:23.410Z,16.20
2022-11-18T15:53:50.307Z,17.10
2022-11-18T15:56:25.015Z,15.27
2022-11-18T15:59:06.328Z,16.20
2022-11-18T16:01:38.645Z,12.73
2022-11-18T16:04:06.994Z,13.23
2022-11-18T16:06:33.925Z,12.43
2022-11-18T16:09:01.129Z,10.60
2022-11-18T16:11:48.277Z,11.33
2022-11-18T16:14:17.882Z,9.53
2022-11-18T16:16:47.854Z,10.80
2022-11-18T16:19:16.977Z,10.97
2022-11-18T16:21:47.025Z,11.27
2022-11-18T16:24:17.991Z,9.90
2022-11-18T16:26:44.997Z,10.03
2022-11-18T16:29:12.513Z,11.60
2022-11-18T16:31:39.925Z,10.03
2022-11-18T16:34:22.175Z,9.50
2022-11-18T16:36:52.051Z,11.47
2022-11-18T16:39:24.199Z,13.53
2022-11-18T16:41:52.801Z,11.27
2022-11-18T16:44:19.839Z,11.37
2022-11-18T16:46:51.826Z,12.77
2022-11-18T16:49:21.709Z,11.70
2022-11-18T16:51:50.672Z,11.37
2022-11-18T16:54:26.085Z,14.43
2022-11-18T16:56:54.750Z,12.33
2022-11-18T16:59:23.417Z,12.87
2022-11-18T17:01:52.535Z,13.47
2022-11-18T17:04:20.712Z,13.03
2022-11-18T17:06:48.209Z,11.83
2022-11-18T17:09:17.628Z,11.57
2022-11-18T17:11:45.047Z,11.70
2022-11-18T17:14:12.472Z,13.30
2022-11-18T17:16:39.959Z,9.87
2022-11-18T17:19:11.645Z,12.63
2022-11-18T17:21:38.939Z,13.13
2022-11-18T17:24:06.780Z,15.17
2022-11-18T17:26:33.942Z,13.83
2022-11-18T17:29:00.714Z,13.50
2022-11-18T17:31:27.522Z,15.27
2022-11-18T17:33:55.266Z,15.23
2022-11-18T17:36:24.962Z,13.83
2022-11-18T17:38:53.477Z,14.50
2022-11-18T17:41:41.397Z,16.63
2022-11-18T17:44:09.937Z,17.33
2022-11-18T17:46:38.411Z,16.40
2022-11-18T17:49:10.788Z,15.07
2022-11-18T17:51:37.812Z,17.67
2022-11-18T17:54:04.836Z,16.53
2022-11-18T17:56:32.043Z,18.63
2022-11-18T17:58:58.948Z,17.27
2022-11-18T18:01:25.886Z,16.83
2022-11-18T18:03:52.834Z,17.33
2022-11-18T18:06:23.134Z,16.27
2022-11-18T18:08:50.083Z,15.47
2022-11-18T18:11:19.035Z,14.60
2022-11-18T18:14:04.644Z,16.93
2022-11-18T18:16:33.481Z,18.00
2022-11-18T18:19:01.569Z,16.43
2022-11-18T18:21:29.196Z,18.13
2022-11-18T18:23:56.149Z,19.10
2022-11-18T18:26:26.751Z,18.73
2022-11-18T18:28:58.604Z,18.33
2022-11-18T18:31:25.440Z,18.10
2022-11-18T18:33:52.465Z,17.73
2022-11-18T18:36:20.354Z,17.63
2022-11-18T18:38:48.107Z,16.80
2022-11-18T18:41:17.411Z,23.27
2022-11-18T18:43:45.836Z,20.60
2022-11-18T18:46:36.787Z,23.07
2022-11-18T18:49:12.196Z,23.27
2022-11-18T18:51:41.701Z,22.37
2022-11-18T18:54:11.494Z,21.53
2022-11-18T18:56:39.131Z,26.63
2022-11-18T18:59:07.452Z,23.17
2022-11-18T19:01:35.372Z,25.37
2022-11-18T19:04:05.355Z,26.17
2022-11-18T19:06:58.836Z,25.47
2022-11-18T19:09:24.941Z,25.93
2022-11-18T19:12:11.278Z,26.70
2022-11-18T19:14:38.242Z,27.67
2022-11-18T19:17:10.621Z,28.60
2022-11-18T19:19:58.234Z,26.53
2022-11-18T19:22:25.864Z,28.87
2022-11-18T19:24:53.864Z,26.43
2022-11-18T19:27:22.031Z,29.07
2022-11-18T19:29:49.074Z,27.43
2022-11-18T19:32:16.323Z,27.33
2022-11-18T19:34:43.468Z,30.77
2022-11-18T19:37:10.692Z,29.87
2022-11-18T19:39:38.627Z,31.80
2022-11-18T19:42:06.317Z,31.63
2022-11-18T19:44:33.236Z,31.50
2022-11-18T19:47:00.005Z,27.47
2022-11-18T19:49:26.928Z,28.00
2022-11-18T19:51:53.843Z,30.40
2022-11-18T19:54:20.916Z,31.13
2022-11-18T19:56:47.926Z,31.20
2022-11-18T19:59:14.769Z,32.10
2022-11-18T20:01:42.151Z,32.07
2022-11-18T20:04:09.564Z,32.93
2022-11-18T20:06:37.581Z,31.10
2022-11-18T20:09:08.443Z,31.60
2022-11-18T20:11:36.524Z,34.20
2022-11-18T20:14:03.444Z,34.83
2022-11-18T20:16:30.389Z,34.03
2022-11-18T20:19:09.319Z,29.37
2022-11-18T20:21:39.183Z,36.83
2022-11-18T20:24:07.514Z,35.93
2022-11-18T20:26:38.763Z,35.30
2022-11-18T20:29:07.770Z,33.60
2022-11-18T20:31:36.404Z,36.87
2022-11-18T20:34:04.637Z,33.97
2022-11-18T20:36:33.851Z,31.90
2022-11-18T20:39:04.130Z,33.80
2022-11-18T20:41:32.647Z,34.70
2022-11-18T20:44:00.372Z,34.80
2022-11-18T20:46:27.931Z,34.00
2022-11-18T20:48:55.056Z,32.50
2022-11-18T20:51:24.351Z,34.73
2022-11-18T20:53:52.437Z,30.60
2022-11-18T20:56:24.728Z,31.13
2022-11-18T20:58:51.865Z,31.77
2022-11-18T21:01:25.571Z,30.30
2022-11-18T21:03:58.061Z,31.73
2022-11-18T21:06:28.176Z,30.80
2022-11-18T21:09:04.223Z,32.10
2022-11-18T21:11:34.767Z,31.50
2022-11-18T21:14:22.890Z,31.47
2022-11-18T21:16:51.295Z,30.57
2022-11-18T21:19:18.779Z,31.33
2022-11-18T21:21:45.845Z,30.50
2022-11-18T21:24:15.132Z,30.53
2022-11-18T21:26:43.331Z,28.83
2022-11-18T21:29:12.402Z,29.07
2022-11-18T21:31:40.829Z,30.60
2022-11-18T21:34:08.344Z,26.50
2022-11-18T21:36:39.999Z,29.83
2022-11-18T21:39:10.104Z,30.30
2022-11-18T21:41:37.640Z,27.50
2022-11-18T21:44:07.492Z,29.80
2022-11-18T21:46:35.620Z,30.87
2022-11-18T21:49:03.516Z,28.93
2022-11-18T21:51:33.578Z,28.20
2022-11-18T21:54:01.324Z,25.73
2022-11-18T21:56:31.108Z,28.77
2022-11-18T21:59:00.023Z,28.97
2022-11-18T22:01:29.658Z,28.10
2022-11-18T22:03:59.592Z,27.57
2022-11-18T22:06:29.754Z,29.07
2022-11-18T22:08:56.998Z,29.47
2022-11-18T22:11:25.818Z,25.43
2022-11-18T22:13:53.489Z,28.93
2022-11-18T22:16:22.740Z,29.93
2022-11-18T22:18:56.481Z,26.43
2022-11-18T22:21:26.514Z,27.97
2022-11-18T22:23:57.256Z,29.50
2022-11-18T22:26:24.084Z,27.80
2022-11-18T22:28:56.181Z,28.23
2022-11-18T22:31:24.746Z,26.90
2022-11-18T22:33:52.316Z,29.73
2022-11-18T22:36:22.111Z,29.20
2022-11-18T22:38:49.984Z,29.13
2022-11-18T22:41:38.269Z,27.23
2022-11-18T22:44:07.935Z,33.77
2022-11-18T22:46:38.741Z,30.53
2022-11-18T22:49:07.365Z,29.93
2022-11-18T22:51:35.443Z,27.37
2022-11-18T22:56:49.234Z,30.57
2022-11-18T22:59:17.346Z,31.03
2022-11-18T23:01:44.567Z,31.33
2022-11-18T23:04:11.379Z,28.90
2022-11-18T23:06:38.203Z,28.70
2022-11-18T23:09:05.214Z,30.73
2022-11-18T23:11:50.559Z,29.47
2022-11-18T23:14:17.519Z,29.33
2022-11-18T23:16:44.449Z,27.73
2022-11-18T23:19:16.175Z,29.07
2022-11-18T23:21:43.940Z,32.00
2022-11-18T23:24:12.516Z,30.80
2022-11-18T23:26:40.122Z,31.10
2022-11-18T23:29:07.005Z,32.23
2022-11-18T23:31:33.785Z,30.10
2022-11-18T23:34:00.651Z,32.63
2022-11-18T23:36:28.116Z,34.00
2022-11-18T23:38:55.251Z,31.63
2022-11-18T23:41:22.406Z,28.80
2022-11-18T23:43:49.426Z,29.27
2022-11-18T23:46:17.635Z,30.53
2022-11-18T23:48:45.683Z,34.20
2022-11-18T23:51:15.004Z,33.47
2022-11-18T23:53:42.590Z,32.10
2022-11-18T23:56:17.652Z,30.70
2022-11-18T23:58:49.672Z,35.57
